sensor_id;sensor_type;location;lat;lon;timestamp;P1;durP1;ratioP1;P2;durP2;ratioP2
71125;SDS011;58785;55.566;38.058;2022-09-17T00:01:14;13.52;;;5.85;;
71125;SDS011;58785;55.566;38.058;2022-09-17T00:03:42;11.03;;;5.50;;
71125;SDS011;58785;55.566;38.058;2022-09-17T00:06:10;13.48;;;5.82;;
71125;SDS011;58785;55.566;38.058;2022-09-17T00:08:37;11.35;;;5.18;;
71125;SDS011;58785;55.566;38.058;2022-09-17T00:11:05;12.00;;;5.40;;
71125;SDS011;58785;55.566;38.058;2022-09-17T00:13:32;10.73;;;5.35;;
71125;SDS011;58785;55.566;38.058;2022-09-17T00:15:58;12.17;;;4.90;;
71125;SDS011;58785;55.566;38.058;2022-09-17T00:18:24;11.55;;;5.07;;
71125;SDS011;58785;55.566;38.058;2022-09-17T00:20:49;10.73;;;5.07;;
71125;SDS011;58785;55.566;38.058;2022-09-17T00:23:15;12.90;;;5.20;;
71125;SDS011;58785;55.566;38.058;2022-09-17T00:25:41;13.00;;;5.40;;
71125;SDS011;58785;55.566;38.058;2022-09-17T00:28:09;11.60;;;5.03;;
71125;SDS011;58785;55.566;38.058;2022-09-17T00:30:38;11.33;;;4.90;;
71125;SDS011;58785;55.566;38.058;2022-09-17T00:33:10;9.68;;;4.68;;
71125;SDS011;58785;55.566;38.058;2022-09-17T00:35:37;10.80;;;5.20;;
71125;SDS011;58785;55.566;38.058;2022-09-17T00:38:03;11.53;;;4.63;;
71125;SDS011;58785;55.566;38.058;2022-09-17T00:40:29;9.77;;;4.75;;
71125;SDS011;58785;55.566;38.058;2022-09-17T00:42:55;11.50;;;5.00;;
71125;SDS011;58785;55.566;38.058;2022-09-17T00:45:20;10.20;;;4.63;;
71125;SDS011;58785;55.566;38.058;2022-09-17T00:47:50;12.07;;;4.60;;
71125;SDS011;58785;55.566;38.058;2022-09-17T00:50:27;10.75;;;5.03;;
71125;SDS011;58785;55.566;38.058;2022-09-17T00:53:12;10.07;;;4.90;;
71125;SDS011;58785;55.566;38.058;2022-09-17T00:55:52;11.63;;;4.68;;
71125;SDS011;58785;55.566;38.058;2022-09-17T00:58:23;10.55;;;4.28;;
71125;SDS011;58785;55.566;38.058;2022-09-17T01:00:50;12.47;;;4.30;;
71125;SDS011;58785;55.566;38.058;2022-09-17T01:03:16;9.98;;;4.57;;
71125;SDS011;58785;55.566;38.058;2022-09-17T01:16:29;9.03;;;3.87;;
71125;SDS011;58785;55.566;38.058;2022-09-17T01:19:37;8.93;;;4.38;;
71125;SDS011;58785;55.566;38.058;2022-09-17T01:25:23;9.55;;;4.32;;
71125;SDS011;58785;55.566;38.058;2022-09-17T01:30:58;8.53;;;4.43;;
71125;SDS011;58785;55.566;38.058;2022-09-17T01:33:51;11.77;;;4.30;;
71125;SDS011;58785;55.566;38.058;2022-09-17T01:44:59;11.13;;;4.63;;
71125;SDS011;58785;55.566;38.058;2022-09-17T01:47:36;8.55;;;3.88;;
71125;SDS011;58785;55.566;38.058;2022-09-17T01:50:07;9.40;;;4.20;;
71125;SDS011;58785;55.566;38.058;2022-09-17T01:52:37;8.15;;;3.85;;
71125;SDS011;58785;55.566;38.058;2022-09-17T01:55:06;7.95;;;3.85;;
71125;SDS011;58785;55.566;38.058;2022-09-17T01:57:57;8.83;;;4.23;;
71125;SDS011;58785;55.566;38.058;2022-09-17T02:00:25;8.60;;;3.88;;
71125;SDS011;58785;55.566;38.058;2022-09-17T02:08:10;12.40;;;4.68;;
71125;SDS011;58785;55.566;38.058;2022-09-17T02:10:47;10.23;;;4.77;;
71125;SDS011;58785;55.566;38.058;2022-09-17T02:13:28;9.50;;;4.25;;
71125;SDS011;58785;55.566;38.058;2022-09-17T02:15:59;10.15;;;4.70;;
71125;SDS011;58785;55.566;38.058;2022-09-17T02:21:44;10.07;;;4.60;;
71125;SDS011;58785;55.566;38.058;2022-09-17T02:29:30;10.48;;;4.50;;
71125;SDS011;58785;55.566;38.058;2022-09-17T02:31:59;8.80;;;3.92;;
71125;SDS011;58785;55.566;38.058;2022-09-17T02:34:25;8.68;;;4.30;;
71125;SDS011;58785;55.566;38.058;2022-09-17T02:36:53;8.63;;;3.93;;
71125;SDS011;58785;55.566;38.058;2022-09-17T02:39:20;9.20;;;4.00;;
71125;SDS011;58785;55.566;38.058;2022-09-17T02:41:51;8.50;;;3.92;;
71125;SDS011;58785;55.566;38.058;2022-09-17T02:58:07;10.52;;;3.63;;
71125;SDS011;58785;55.566;38.058;2022-09-17T03:00:45;7.90;;;3.78;;
71125;SDS011;58785;55.566;38.058;2022-09-17T03:05:50;10.05;;;3.80;;
71125;SDS011;58785;55.566;38.058;2022-09-17T03:08:17;9.88;;;3.78;;
71125;SDS011;58785;55.566;38.058;2022-09-17T03:10:44;9.43;;;3.40;;
71125;SDS011;58785;55.566;38.058;2022-09-17T03:13:11;9.55;;;4.07;;
71125;SDS011;58785;55.566;38.058;2022-09-17T03:15:36;9.60;;;3.53;;
71125;SDS011;58785;55.566;38.058;2022-09-17T03:18:02;8.52;;;3.45;;
71125;SDS011;58785;55.566;38.058;2022-09-17T03:20:28;9.03;;;3.70;;
71125;SDS011;58785;55.566;38.058;2022-09-17T03:22:53;9.77;;;3.40;;
71125;SDS011;58785;55.566;38.058;2022-09-17T03:25:19;8.70;;;3.97;;
71125;SDS011;58785;55.566;38.058;2022-09-17T03:27:44;8.73;;;3.77;;
71125;SDS011;58785;55.566;38.058;2022-09-17T03:30:10;9.10;;;4.03;;
71125;SDS011;58785;55.566;38.058;2022-09-17T03:32:35;8.03;;;3.77;;
71125;SDS011;58785;55.566;38.058;2022-09-17T03:35:01;7.85;;;3.35;;
71125;SDS011;58785;55.566;38.058;2022-09-17T03:37:29;8.53;;;3.97;;
71125;SDS011;58785;55.566;38.058;2022-09-17T03:39:55;8.73;;;3.95;;
71125;SDS011;58785;55.566;38.058;2022-09-17T03:42:21;9.68;;;3.95;;
71125;SDS011;58785;55.566;38.058;2022-09-17T03:44:46;7.67;;;4.03;;
71125;SDS011;58785;55.566;38.058;2022-09-17T03:47:12;10.48;;;4.20;;
71125;SDS011;58785;55.566;38.058;2022-09-17T03:49:37;7.87;;;3.60;;
71125;SDS011;58785;55.566;38.058;2022-09-17T03:52:03;7.80;;;3.57;;
71125;SDS011;58785;55.566;38.058;2022-09-17T03:54:28;8.05;;;3.85;;
71125;SDS011;58785;55.566;38.058;2022-09-17T03:56:54;9.83;;;3.83;;
71125;SDS011;58785;55.566;38.058;2022-09-17T03:59:19;10.70;;;4.00;;
71125;SDS011;58785;55.566;38.058;2022-09-17T04:01:45;10.67;;;4.33;;
71125;SDS011;58785;55.566;38.058;2022-09-17T04:04:10;7.57;;;3.37;;
71125;SDS011;58785;55.566;38.058;2022-09-17T04:06:36;11.95;;;3.78;;
71125;SDS011;58785;55.566;38.058;2022-09-17T04:09:02;9.17;;;3.80;;
71125;SDS011;58785;55.566;38.058;2022-09-17T04:11:29;8.10;;;3.70;;
71125;SDS011;58785;55.566;38.058;2022-09-17T04:13:55;9.17;;;4.10;;
71125;SDS011;58785;55.566;38.058;2022-09-17T04:16:20;7.25;;;3.45;;
71125;SDS011;58785;55.566;38.058;2022-09-17T04:18:46;10.93;;;4.00;;
71125;SDS011;58785;55.566;38.058;2022-09-17T04:21:11;9.63;;;4.05;;
71125;SDS011;58785;55.566;38.058;2022-09-17T04:23:37;9.03;;;4.17;;
71125;SDS011;58785;55.566;38.058;2022-09-17T04:26:03;7.45;;;3.40;;
71125;SDS011;58785;55.566;38.058;2022-09-17T04:28:28;10.40;;;4.10;;
71125;SDS011;58785;55.566;38.058;2022-09-17T04:30:54;12.40;;;3.90;;
71125;SDS011;58785;55.566;38.058;2022-09-17T04:33:20;7.67;;;3.80;;
71125;SDS011;58785;55.566;38.058;2022-09-17T04:35:46;9.05;;;3.85;;
71125;SDS011;58785;55.566;38.058;2022-09-17T04:38:12;10.25;;;4.53;;
71125;SDS011;58785;55.566;38.058;2022-09-17T04:40:42;13.20;;;4.03;;
71125;SDS011;58785;55.566;38.058;2022-09-17T04:43:08;9.57;;;4.68;;
71125;SDS011;58785;55.566;38.058;2022-09-17T04:45:35;10.05;;;4.50;;
71125;SDS011;58785;55.566;38.058;2022-09-17T04:48:00;10.38;;;5.03;;
71125;SDS011;58785;55.566;38.058;2022-09-17T04:50:26;10.57;;;4.95;;
71125;SDS011;58785;55.566;38.058;2022-09-17T04:52:52;10.03;;;4.70;;
71125;SDS011;58785;55.566;38.058;2022-09-17T04:55:18;10.38;;;4.20;;
71125;SDS011;58785;55.566;38.058;2022-09-17T04:57:50;9.93;;;4.43;;
71125;SDS011;58785;55.566;38.058;2022-09-17T05:00:17;10.88;;;4.18;;
71125;SDS011;58785;55.566;38.058;2022-09-17T05:02:45;10.55;;;4.65;;
71125;SDS011;58785;55.566;38.058;2022-09-17T05:05:12;10.30;;;4.50;;
71125;SDS011;58785;55.566;38.058;2022-09-17T05:07:39;12.98;;;5.63;;
71125;SDS011;58785;55.566;38.058;2022-09-17T05:10:08;12.07;;;5.35;;
71125;SDS011;58785;55.566;38.058;2022-09-17T05:12:35;11.45;;;4.70;;
71125;SDS011;58785;55.566;38.058;2022-09-17T05:15:01;10.13;;;4.40;;
71125;SDS011;58785;55.566;38.058;2022-09-17T05:17:28;9.52;;;4.43;;
71125;SDS011;58785;55.566;38.058;2022-09-17T05:19:54;10.10;;;4.30;;
71125;SDS011;58785;55.566;38.058;2022-09-17T05:22:19;9.15;;;4.30;;
71125;SDS011;58785;55.566;38.058;2022-09-17T05:24:45;10.47;;;4.37;;
71125;SDS011;58785;55.566;38.058;2022-09-17T05:27:11;10.23;;;3.97;;
71125;SDS011;58785;55.566;38.058;2022-09-17T05:29:37;10.27;;;4.03;;
71125;SDS011;58785;55.566;38.058;2022-09-17T05:32:03;8.23;;;3.70;;
71125;SDS011;58785;55.566;38.058;2022-09-17T05:34:29;8.18;;;3.72;;
71125;SDS011;58785;55.566;38.058;2022-09-17T05:36:54;7.70;;;3.50;;
71125;SDS011;58785;55.566;38.058;2022-09-17T05:39:20;9.32;;;3.83;;
71125;SDS011;58785;55.566;38.058;2022-09-17T05:41:52;6.88;;;3.40;;
71125;SDS011;58785;55.566;38.058;2022-09-17T05:44:19;7.77;;;3.33;;
71125;SDS011;58785;55.566;38.058;2022-09-17T05:46:45;7.13;;;3.25;;
71125;SDS011;58785;55.566;38.058;2022-09-17T05:49:12;7.80;;;3.72;;
71125;SDS011;58785;55.566;38.058;2022-09-17T05:51:39;8.82;;;3.83;;
71125;SDS011;58785;55.566;38.058;2022-09-17T05:54:05;7.13;;;3.40;;
71125;SDS011;58785;55.566;38.058;2022-09-17T05:56:31;9.50;;;4.00;;
71125;SDS011;58785;55.566;38.058;2022-09-17T05:58:57;8.07;;;3.60;;
71125;SDS011;58785;55.566;38.058;2022-09-17T06:01:22;6.77;;;3.53;;
71125;SDS011;58785;55.566;38.058;2022-09-17T06:03:48;7.25;;;3.47;;
71125;SDS011;58785;55.566;38.058;2022-09-17T06:06:14;6.27;;;3.07;;
71125;SDS011;58785;55.566;38.058;2022-09-17T06:08:40;7.15;;;3.30;;
71125;SDS011;58785;55.566;38.058;2022-09-17T06:11:05;10.57;;;6.10;;
71125;SDS011;58785;55.566;38.058;2022-09-17T06:13:32;6.47;;;3.00;;
71125;SDS011;58785;55.566;38.058;2022-09-17T06:15:59;7.70;;;3.00;;
71125;SDS011;58785;55.566;38.058;2022-09-17T06:18:26;8.75;;;3.65;;
71125;SDS011;58785;55.566;38.058;2022-09-17T06:20:56;7.40;;;2.77;;
71125;SDS011;58785;55.566;38.058;2022-09-17T06:23:26;8.65;;;2.83;;
71125;SDS011;58785;55.566;38.058;2022-09-17T06:25:56;8.13;;;3.10;;
71125;SDS011;58785;55.566;38.058;2022-09-17T06:28:24;8.85;;;3.00;;
71125;SDS011;58785;55.566;38.058;2022-09-17T06:30:50;6.75;;;3.00;;
71125;SDS011;58785;55.566;38.058;2022-09-17T06:33:21;6.67;;;2.97;;
71125;SDS011;58785;55.566;38.058;2022-09-17T06:35:48;6.00;;;2.65;;
71125;SDS011;58785;55.566;38.058;2022-09-17T06:38:20;6.13;;;2.78;;
71125;SDS011;58785;55.566;38.058;2022-09-17T06:40:49;7.80;;;3.10;;
71125;SDS011;58785;55.566;38.058;2022-09-17T06:43:16;9.93;;;2.85;;
71125;SDS011;58785;55.566;38.058;2022-09-17T06:45:42;6.97;;;3.08;;
71125;SDS011;58785;55.566;38.058;2022-09-17T06:48:07;7.50;;;2.87;;
71125;SDS011;58785;55.566;38.058;2022-09-17T06:50:36;7.80;;;2.85;;
71125;SDS011;58785;55.566;38.058;2022-09-17T06:53:02;6.95;;;2.90;;
71125;SDS011;58785;55.566;38.058;2022-09-17T06:55:27;7.57;;;2.60;;
71125;SDS011;58785;55.566;38.058;2022-09-17T06:57:53;6.83;;;2.60;;
71125;SDS011;58785;55.566;38.058;2022-09-17T07:00:23;8.82;;;2.75;;
71125;SDS011;58785;55.566;38.058;2022-09-17T07:02:55;7.88;;;2.90;;
71125;SDS011;58785;55.566;38.058;2022-09-17T07:05:25;10.98;;;3.10;;
71125;SDS011;58785;55.566;38.058;2022-09-17T07:07:52;6.93;;;2.83;;
71125;SDS011;58785;55.566;38.058;2022-09-17T07:10:18;9.35;;;3.00;;
71125;SDS011;58785;55.566;38.058;2022-09-17T07:12:44;7.60;;;3.42;;
71125;SDS011;58785;55.566;38.058;2022-09-17T07:15:10;10.63;;;2.87;;
71125;SDS011;58785;55.566;38.058;2022-09-17T07:17:37;6.03;;;2.33;;
71125;SDS011;58785;55.566;38.058;2022-09-17T07:20:05;10.68;;;2.70;;
71125;SDS011;58785;55.566;38.058;2022-09-17T07:22:31;7.60;;;2.53;;
71125;SDS011;58785;55.566;38.058;2022-09-17T07:24:57;9.50;;;2.60;;
71125;SDS011;58785;55.566;38.058;2022-09-17T07:27:23;7.40;;;2.20;;
71125;SDS011;58785;55.566;38.058;2022-09-17T07:29:51;6.72;;;2.53;;
71125;SDS011;58785;55.566;38.058;2022-09-17T07:32:16;6.37;;;2.10;;
71125;SDS011;58785;55.566;38.058;2022-09-17T07:34:42;6.07;;;1.90;;
71125;SDS011;58785;55.566;38.058;2022-09-17T07:37:10;5.35;;;1.98;;
71125;SDS011;58785;55.566;38.058;2022-09-17T07:39:37;7.25;;;2.17;;
71125;SDS011;58785;55.566;38.058;2022-09-17T07:42:03;7.13;;;2.10;;
71125;SDS011;58785;55.566;38.058;2022-09-17T07:44:29;7.90;;;2.40;;
71125;SDS011;58785;55.566;38.058;2022-09-17T07:46:55;9.07;;;2.30;;
71125;SDS011;58785;55.566;38.058;2022-09-17T07:49:20;6.88;;;2.15;;
71125;SDS011;58785;55.566;38.058;2022-09-17T07:51:46;5.63;;;1.90;;
71125;SDS011;58785;55.566;38.058;2022-09-17T07:54:12;5.95;;;2.08;;
71125;SDS011;58785;55.566;38.058;2022-09-17T07:56:37;5.37;;;2.20;;
71125;SDS011;58785;55.566;38.058;2022-09-17T07:59:03;7.60;;;2.10;;
71125;SDS011;58785;55.566;38.058;2022-09-17T08:01:30;6.50;;;2.10;;
71125;SDS011;58785;55.566;38.058;2022-09-17T08:03:58;7.38;;;2.17;;
71125;SDS011;58785;55.566;38.058;2022-09-17T08:06:25;6.05;;;1.98;;
71125;SDS011;58785;55.566;38.058;2022-09-17T08:08:53;7.03;;;1.90;;
71125;SDS011;58785;55.566;38.058;2022-09-17T08:11:20;5.78;;;1.85;;
71125;SDS011;58785;55.566;38.058;2022-09-17T08:13:47;8.52;;;2.47;;
71125;SDS011;58785;55.566;38.058;2022-09-17T08:16:16;7.60;;;2.08;;
71125;SDS011;58785;55.566;38.058;2022-09-17T08:18:43;8.25;;;2.30;;
71125;SDS011;58785;55.566;38.058;2022-09-17T08:21:11;7.63;;;2.50;;
71125;SDS011;58785;55.566;38.058;2022-09-17T08:23:39;5.70;;;1.90;;
71125;SDS011;58785;55.566;38.058;2022-09-17T08:26:06;7.20;;;1.90;;
71125;SDS011;58785;55.566;38.058;2022-09-17T08:28:35;8.52;;;1.90;;
71125;SDS011;58785;55.566;38.058;2022-09-17T08:31:03;12.37;;;2.10;;
71125;SDS011;58785;55.566;38.058;2022-09-17T08:33:31;6.25;;;2.30;;
71125;SDS011;58785;55.566;38.058;2022-09-17T08:35:58;6.38;;;1.88;;
71125;SDS011;58785;55.566;38.058;2022-09-17T08:38:27;9.95;;;1.90;;
71125;SDS011;58785;55.566;38.058;2022-09-17T08:41:05;6.40;;;2.23;;
71125;SDS011;58785;55.566;38.058;2022-09-17T08:46:41;6.80;;;1.90;;
71125;SDS011;58785;55.566;38.058;2022-09-17T08:49:28;5.25;;;1.60;;
71125;SDS011;58785;55.566;38.058;2022-09-17T08:51:59;5.65;;;1.70;;
71125;SDS011;58785;55.566;38.058;2022-09-17T08:54:29;7.07;;;2.33;;
71125;SDS011;58785;55.566;38.058;2022-09-17T09:00:14;7.28;;;1.90;;
71125;SDS011;58785;55.566;38.058;2022-09-17T09:05:30;5.85;;;1.75;;
71125;SDS011;58785;55.566;38.058;2022-09-17T09:08:11;6.10;;;1.40;;
71125;SDS011;58785;55.566;38.058;2022-09-17T09:10:48;7.05;;;1.92;;
71125;SDS011;58785;55.566;38.058;2022-09-17T09:13:20;7.97;;;1.50;;
71125;SDS011;58785;55.566;38.058;2022-09-17T09:15:58;7.80;;;1.65;;
71125;SDS011;58785;55.566;38.058;2022-09-17T09:18:28;5.88;;;1.48;;
71125;SDS011;58785;55.566;38.058;2022-09-17T09:23:33;10.00;;;1.42;;
71125;SDS011;58785;55.566;38.058;2022-09-17T09:26:09;6.07;;;1.80;;
71125;SDS011;58785;55.566;38.058;2022-09-17T09:31:33;5.20;;;1.67;;
71125;SDS011;58785;55.566;38.058;2022-09-17T09:34:10;5.27;;;1.60;;
71125;SDS011;58785;55.566;38.058;2022-09-17T09:36:38;6.00;;;1.60;;
71125;SDS011;58785;55.566;38.058;2022-09-17T09:39:14;5.57;;;1.77;;
71125;SDS011;58785;55.566;38.058;2022-09-17T09:48:11;5.03;;;1.40;;
71125;SDS011;58785;55.566;38.058;2022-09-17T09:56:54;5.38;;;1.55;;
71125;SDS011;58785;55.566;38.058;2022-09-17T09:59:23;5.15;;;1.38;;
71125;SDS011;58785;55.566;38.058;2022-09-17T10:01:50;6.63;;;1.20;;
71125;SDS011;58785;55.566;38.058;2022-09-17T10:07:08;6.03;;;1.35;;
71125;SDS011;58785;55.566;38.058;2022-09-17T10:09:36;5.35;;;1.25;;
71125;SDS011;58785;55.566;38.058;2022-09-17T10:14:31;7.37;;;1.00;;
71125;SDS011;58785;55.566;38.058;2022-09-17T10:17:18;5.38;;;1.17;;
71125;SDS011;58785;55.566;38.058;2022-09-17T10:22:39;8.90;;;1.67;;
71125;SDS011;58785;55.566;38.058;2022-09-17T10:25:52;6.32;;;1.20;;
71125;SDS011;58785;55.566;38.058;2022-09-17T10:28:01;6.13;;;1.20;;
71125;SDS011;58785;55.566;38.058;2022-09-17T10:30:29;4.28;;;1.13;;
71125;SDS011;58785;55.566;38.058;2022-09-17T10:35:55;4.47;;;1.40;;
71125;SDS011;58785;55.566;38.058;2022-09-17T10:38:37;4.63;;;1.23;;
71125;SDS011;58785;55.566;38.058;2022-09-17T10:41:08;6.00;;;1.20;;
71125;SDS011;58785;55.566;38.058;2022-09-17T10:43:46;6.45;;;1.90;;
71125;SDS011;58785;55.566;38.058;2022-09-17T10:46:15;4.35;;;1.50;;
71125;SDS011;58785;55.566;38.058;2022-09-17T10:48:45;7.68;;;1.75;;
71125;SDS011;58785;55.566;38.058;2022-09-17T10:51:21;8.95;;;1.55;;
71125;SDS011;58785;55.566;38.058;2022-09-17T10:53:57;7.47;;;1.50;;
71125;SDS011;58785;55.566;38.058;2022-09-17T10:56:33;6.10;;;1.80;;
71125;SDS011;58785;55.566;38.058;2022-09-17T11:07:38;6.90;;;1.30;;
71125;SDS011;58785;55.566;38.058;2022-09-17T11:27:33;6.03;;;1.60;;
71125;SDS011;58785;55.566;38.058;2022-09-17T11:30:04;4.50;;;1.40;;
71125;SDS011;58785;55.566;38.058;2022-09-17T11:35:30;4.88;;;1.50;;
71125;SDS011;58785;55.566;38.058;2022-09-17T11:38:19;6.45;;;1.50;;
71125;SDS011;58785;55.566;38.058;2022-09-17T11:40:51;8.30;;;1.47;;
71125;SDS011;58785;55.566;38.058;2022-09-17T11:43:32;6.53;;;2.10;;
71125;SDS011;58785;55.566;38.058;2022-09-17T11:46:06;8.13;;;2.67;;
71125;SDS011;58785;55.566;38.058;2022-09-17T11:48:46;9.70;;;2.05;;
71125;SDS011;58785;55.566;38.058;2022-09-17T11:54:15;8.10;;;3.93;;
71125;SDS011;58785;55.566;38.058;2022-09-17T11:56:52;6.30;;;2.33;;
71125;SDS011;58785;55.566;38.058;2022-09-17T11:59:46;4.28;;;1.60;;
71125;SDS011;58785;55.566;38.058;2022-09-17T12:05:21;7.25;;;2.30;;
71125;SDS011;58785;55.566;38.058;2022-09-17T12:15:50;7.23;;;2.80;;
71125;SDS011;58785;55.566;38.058;2022-09-17T12:18:36;9.65;;;2.15;;
71125;SDS011;58785;55.566;38.058;2022-09-17T12:21:12;6.43;;;2.00;;
71125;SDS011;58785;55.566;38.058;2022-09-17T12:23:55;6.57;;;2.17;;
71125;SDS011;58785;55.566;38.058;2022-09-17T12:29:29;6.55;;;1.95;;
71125;SDS011;58785;55.566;38.058;2022-09-17T12:32:05;7.53;;;2.15;;
71125;SDS011;58785;55.566;38.058;2022-09-17T12:59:30;12.03;;;5.00;;
71125;SDS011;58785;55.566;38.058;2022-09-17T13:02:00;8.30;;;2.80;;
71125;SDS011;58785;55.566;38.058;2022-09-17T13:12:38;7.87;;;2.87;;
71125;SDS011;58785;55.566;38.058;2022-09-17T13:18:22;7.03;;;2.70;;
71125;SDS011;58785;55.566;38.058;2022-09-17T13:21:16;10.55;;;4.40;;
71125;SDS011;58785;55.566;38.058;2022-09-17T13:23:48;9.93;;;3.65;;
71125;SDS011;58785;55.566;38.058;2022-09-17T13:26:19;10.03;;;4.20;;
71125;SDS011;58785;55.566;38.058;2022-09-17T13:28:50;7.35;;;2.25;;
71125;SDS011;58785;55.566;38.058;2022-09-17T13:34:01;7.55;;;2.40;;
71125;SDS011;58785;55.566;38.058;2022-09-17T13:36:37;8.35;;;2.42;;
71125;SDS011;58785;55.566;38.058;2022-09-17T13:39:06;5.67;;;1.80;;
71125;SDS011;58785;55.566;38.058;2022-09-17T13:41:42;9.68;;;2.30;;
71125;SDS011;58785;55.566;38.058;2022-09-17T13:44:08;6.03;;;2.35;;
71125;SDS011;58785;55.566;38.058;2022-09-17T13:46:36;6.88;;;2.15;;
71125;SDS011;58785;55.566;38.058;2022-09-17T13:49:13;6.78;;;2.22;;
71125;SDS011;58785;55.566;38.058;2022-09-17T13:54:09;9.60;;;2.90;;
71125;SDS011;58785;55.566;38.058;2022-09-17T13:59:23;9.10;;;2.75;;
71125;SDS011;58785;55.566;38.058;2022-09-17T14:07:49;6.38;;;2.25;;
71125;SDS011;58785;55.566;38.058;2022-09-17T14:18:00;5.88;;;1.42;;
71125;SDS011;58785;55.566;38.058;2022-09-17T14:20:29;5.22;;;1.58;;
71125;SDS011;58785;55.566;38.058;2022-09-17T14:22:59;5.68;;;1.65;;
71125;SDS011;58785;55.566;38.058;2022-09-17T14:25:35;5.30;;;1.50;;
71125;SDS011;58785;55.566;38.058;2022-09-17T14:28:41;5.75;;;1.58;;
71125;SDS011;58785;55.566;38.058;2022-09-17T14:31:08;5.57;;;1.65;;
71125;SDS011;58785;55.566;38.058;2022-09-17T14:33:41;6.85;;;1.52;;
71125;SDS011;58785;55.566;38.058;2022-09-17T14:36:15;10.18;;;1.60;;
71125;SDS011;58785;55.566;38.058;2022-09-17T14:38:45;6.00;;;1.20;;
71125;SDS011;58785;55.566;38.058;2022-09-17T14:43:44;6.32;;;1.40;;
71125;SDS011;58785;55.566;38.058;2022-09-17T14:46:20;6.13;;;1.48;;
71125;SDS011;58785;55.566;38.058;2022-09-17T14:48:48;4.00;;;1.25;;
71125;SDS011;58785;55.566;38.058;2022-09-17T14:53:43;8.93;;;1.85;;
71125;SDS011;58785;55.566;38.058;2022-09-17T14:56:12;6.43;;;1.50;;
71125;SDS011;58785;55.566;38.058;2022-09-17T14:58:41;7.10;;;1.70;;
71125;SDS011;58785;55.566;38.058;2022-09-17T15:01:21;4.63;;;1.38;;
71125;SDS011;58785;55.566;38.058;2022-09-17T15:03:49;6.20;;;1.73;;
71125;SDS011;58785;55.566;38.058;2022-09-17T15:06:34;4.53;;;1.70;;
71125;SDS011;58785;55.566;38.058;2022-09-17T15:09:02;5.40;;;1.42;;
71125;SDS011;58785;55.566;38.058;2022-09-17T15:11:28;8.23;;;1.80;;
71125;SDS011;58785;55.566;38.058;2022-09-17T15:13:59;5.45;;;1.40;;
71125;SDS011;58785;55.566;38.058;2022-09-17T15:16:30;6.55;;;1.90;;
71125;SDS011;58785;55.566;38.058;2022-09-17T15:19:00;8.18;;;2.70;;
71125;SDS011;58785;55.566;38.058;2022-09-17T15:21:33;5.05;;;2.00;;
71125;SDS011;58785;55.566;38.058;2022-09-17T15:26:52;7.55;;;2.00;;
71125;SDS011;58785;55.566;38.058;2022-09-17T15:29:21;7.60;;;2.10;;
71125;SDS011;58785;55.566;38.058;2022-09-17T15:31:50;10.48;;;2.10;;
71125;SDS011;58785;55.566;38.058;2022-09-17T15:34:16;6.70;;;2.10;;
71125;SDS011;58785;55.566;38.058;2022-09-17T15:39:37;12.70;;;2.63;;
71125;SDS011;58785;55.566;38.058;2022-09-17T15:42:04;10.32;;;2.60;;
71125;SDS011;58785;55.566;38.058;2022-09-17T15:44:41;8.03;;;2.00;;
71125;SDS011;58785;55.566;38.058;2022-09-17T15:50:03;10.70;;;3.10;;
71125;SDS011;58785;55.566;38.058;2022-09-17T15:52:49;9.50;;;3.88;;
71125;SDS011;58785;55.566;38.058;2022-09-17T15:55:33;8.68;;;2.80;;
71125;SDS011;58785;55.566;38.058;2022-09-17T15:58:02;7.20;;;2.80;;
71125;SDS011;58785;55.566;38.058;2022-09-17T16:00:30;8.82;;;2.63;;
71125;SDS011;58785;55.566;38.058;2022-09-17T16:02:55;8.88;;;2.63;;
71125;SDS011;58785;55.566;38.058;2022-09-17T16:07:51;8.13;;;3.20;;
71125;SDS011;58785;55.566;38.058;2022-09-17T16:10:18;9.93;;;3.83;;
71125;SDS011;58785;55.566;38.058;2022-09-17T16:12:43;13.45;;;5.82;;
71125;SDS011;58785;55.566;38.058;2022-09-17T16:15:09;10.60;;;4.50;;
71125;SDS011;58785;55.566;38.058;2022-09-17T16:17:42;9.53;;;4.27;;
71125;SDS011;58785;55.566;38.058;2022-09-17T16:22:41;18.30;;;8.30;;
71125;SDS011;58785;55.566;38.058;2022-09-17T16:25:12;44.50;;;18.08;;
71125;SDS011;58785;55.566;38.058;2022-09-17T16:28:00;15.50;;;7.60;;
71125;SDS011;58785;55.566;38.058;2022-09-17T16:30:28;12.03;;;4.20;;
71125;SDS011;58785;55.566;38.058;2022-09-17T16:32:56;11.43;;;3.00;;
71125;SDS011;58785;55.566;38.058;2022-09-17T16:35:24;17.83;;;5.68;;
71125;SDS011;58785;55.566;38.058;2022-09-17T16:37:52;12.60;;;4.90;;
71125;SDS011;58785;55.566;38.058;2022-09-17T16:40:21;13.38;;;5.07;;
71125;SDS011;58785;55.566;38.058;2022-09-17T16:42:52;13.33;;;5.40;;
71125;SDS011;58785;55.566;38.058;2022-09-17T16:45:18;13.57;;;5.43;;
71125;SDS011;58785;55.566;38.058;2022-09-17T16:47:44;18.60;;;8.35;;
71125;SDS011;58785;55.566;38.058;2022-09-17T16:50:11;19.67;;;7.87;;
71125;SDS011;58785;55.566;38.058;2022-09-17T16:52:39;19.80;;;7.25;;
71125;SDS011;58785;55.566;38.058;2022-09-17T16:55:05;16.10;;;6.38;;
71125;SDS011;58785;55.566;38.058;2022-09-17T16:57:32;18.60;;;8.63;;
71125;SDS011;58785;55.566;38.058;2022-09-17T16:59:58;15.80;;;7.47;;
71125;SDS011;58785;55.566;38.058;2022-09-17T17:02:24;16.23;;;6.13;;
71125;SDS011;58785;55.566;38.058;2022-09-17T17:04:50;15.13;;;6.05;;
71125;SDS011;58785;55.566;38.058;2022-09-17T17:07:16;13.05;;;4.65;;
71125;SDS011;58785;55.566;38.058;2022-09-17T17:09:41;14.20;;;4.43;;
71125;SDS011;58785;55.566;38.058;2022-09-17T17:12:07;12.07;;;4.40;;
71125;SDS011;58785;55.566;38.058;2022-09-17T17:14:33;12.15;;;4.50;;
71125;SDS011;58785;55.566;38.058;2022-09-17T17:16:58;11.88;;;5.10;;
71125;SDS011;58785;55.566;38.058;2022-09-17T17:19:24;11.63;;;4.80;;
71125;SDS011;58785;55.566;38.058;2022-09-17T17:21:51;13.63;;;4.72;;
71125;SDS011;58785;55.566;38.058;2022-09-17T17:24:17;12.88;;;5.22;;
71125;SDS011;58785;55.566;38.058;2022-09-17T17:26:45;15.05;;;4.85;;
71125;SDS011;58785;55.566;38.058;2022-09-17T17:29:16;9.68;;;4.80;;
71125;SDS011;58785;55.566;38.058;2022-09-17T17:31:43;11.40;;;4.27;;
71125;SDS011;58785;55.566;38.058;2022-09-17T17:34:09;13.57;;;3.95;;
71125;SDS011;58785;55.566;38.058;2022-09-17T17:36:36;11.00;;;3.90;;
71125;SDS011;58785;55.566;38.058;2022-09-17T17:39:02;8.93;;;3.53;;
71125;SDS011;58785;55.566;38.058;2022-09-17T17:41:28;10.43;;;4.13;;
71125;SDS011;58785;55.566;38.058;2022-09-17T17:43:55;14.32;;;4.07;;
71125;SDS011;58785;55.566;38.058;2022-09-17T17:46:21;10.05;;;4.32;;
71125;SDS011;58785;55.566;38.058;2022-09-17T17:48:48;13.07;;;4.35;;
71125;SDS011;58785;55.566;38.058;2022-09-17T17:51:15;12.13;;;4.53;;
71125;SDS011;58785;55.566;38.058;2022-09-17T17:53:43;12.48;;;4.20;;
71125;SDS011;58785;55.566;38.058;2022-09-17T17:56:10;11.38;;;4.30;;
71125;SDS011;58785;55.566;38.058;2022-09-17T17:58:37;15.85;;;4.60;;
71125;SDS011;58785;55.566;38.058;2022-09-17T18:01:11;16.95;;;4.80;;
71125;SDS011;58785;55.566;38.058;2022-09-17T18:03:39;13.67;;;4.83;;
71125;SDS011;58785;55.566;38.058;2022-09-17T18:06:08;12.63;;;4.47;;
71125;SDS011;58785;55.566;38.058;2022-09-17T18:08:34;11.73;;;4.28;;
71125;SDS011;58785;55.566;38.058;2022-09-17T18:11:01;11.95;;;3.83;;
71125;SDS011;58785;55.566;38.058;2022-09-17T18:13:28;11.70;;;3.87;;
71125;SDS011;58785;55.566;38.058;2022-09-17T18:15:58;8.98;;;3.53;;
71125;SDS011;58785;55.566;38.058;2022-09-17T18:18:30;12.13;;;3.83;;
71125;SDS011;58785;55.566;38.058;2022-09-17T18:21:03;12.38;;;4.10;;